Date,TemperatureHighF,TemperatureAvgF,TemperatureLowF,DewpointHighF,DewpointAvgF,DewpointLowF,HumidityHigh,HumidityAvg,HumidityLow,PressureMaxIn,PressureMinIn,WindSpeedMaxMPH,WindSpeedAvgMPH,GustSpeedMaxMPH,PrecipitationSumIn
2013-1-1,19,5,13,17,-66,-100,91,27,88,30.36,30.08,9,-700,17,0.00
2013-1-2,22,18,15,19,16,13,93,90,84,30.17,30.01,11,4,15,0.00
2013-1-3,16,7,6,13,-33,-100,90,52,75,30.35,30.15,12,-369,17,0.00
2013-1-4,28,19,12,18,14,10,93,81,67,30.19,30.08,14,5,20,0.00
2013-1-5,23,12,10,15,-18,-100,93,62,71,30.15,29.93,7,-267,12,0.00
2013-1-6,19,13,10,14,3,-100,94,79,74,30.31,30.02,15,-60,19,0.00
2013-1-7,35,27,18,26,22,15,89,81,69,30.02,29.94,16,7,20,0.00
2013-1-8,32,26,18,28,23,16,95,89,79,30.03,29.77,14,5,19,0.00
2013-1-9,33,28,23,28,22,20,88,78,69,30.38,29.95,27,10,36,0.00
2013-1-10,40,34,27,32,26,22,97,76,52,30.31,29.74,11,6,18,0.16
2013-1-11,38,35,33,37,35,32,99,98,97,29.74,29.38,17,5,24,0.03
2013-1-12,34,10,7,34,-22,-100,98,58,71,30.15,29.39,33,-278,45,0.00
2013-1-13,6,0,5,0,-90,-100,78,7,75,30.33,30.13,8,-902,13,0.00
2013-1-14,11,2,5,3,-79,-100,78,15,70,30.51,30.33,10,-790,13,0.00
2013-1-15,26,13,12,18,-29,-100,89,46,65,30.35,29.86,12,-374,19,0.00
2013-1-16,34,23,10,31,10,-100,95,71,51,30.31,29.70,22,-58,28,0.00
2013-1-17,18,7,11,10,-46,-100,81,37,61,30.45,30.31,11,-492,13,0.00
2013-1-18,45,26,15,31,18,-100,91,79,49,30.34,29.79,11,-28,16,0.03
2013-1-19,37,20,-2,30,14,-9,95,79,59,30.34,29.73,23,7,35,0.01
2013-1-20,5,-1,-6,-2,-9,-13,75,70,63,30.51,30.33,16,6,20,0.00
2013-1-21,-7,-10,-14,-13,-18,-21,79,70,63,30.49,30.41,16,6,20,0.00
2013-1-22,2,-8,-16,-5,-14,-21,81,73,65,30.55,30.37,10,3,12,0.00
2013-1-23,12,3,-9,4,-6,-18,85,67,51,30.74,30.28,17,6,23,0.00
2013-1-24,11,-1,-10,1,-11,-19,67,63,56,30.79,30.26,17,6,21,0.00
2013-1-25,15,9,-1,9,1,-7,78,70,59,30.41,30.04,20,7,27,0.00
2013-1-26,21,9,-5,11,1,-9,83,70,60,30.44,30.18,8,3,16,0.00
2013-1-27,31,26,18,28,21,10,96,80,64,30.18,29.85,10,3,15,0.00
2013-1-28,34,30,27,33,29,26,98,96,93,29.93,29.68,8,2,12,0.11
2013-1-29,33,30,25,30,27,20,98,90,80,29.81,29.57,20,5,25,0.05
2013-1-30,24,14,4,19,8,0,85,79,73,29.85,29.74,17,7,22,0.00
2013-1-31,4,-2,-12,0,-9,-18,82,74,66,30.40,29.86,14,7,24,0.00
2013-2-1,-1,-8,-17,-4,-14,-22,85,76,62,30.44,30.19,9,4,16,0.00
2013-2-2,7,2,-3,3,-3,-7,86,80,66,30.31,30.09,7,2,13,0.00
2013-2-3,10,7,1,6,2,-3,88,80,66,30.19,30.07,11,4,19,0.00
2013-2-4,12,7,-1,10,0,-7,89,73,57,30.17,29.81,11,4,15,0.00
2013-2-5,27,19,5,23,14,2,93,82,63,30.14,29.73,12,4,17,0.00
2013-2-6,22,13,4,18,10,1,89,86,80,30.16,30.00,13,4,15,0.00
2013-2-7,25,22,20,21,19,16,94,88,78,30.34,30.09,18,12,24,0.00
2013-2-8,24,19,10,20,16,8,93,85,75,30.43,30.25,13,5,18,0.00
2013-2-9,30,27,23,28,24,20,96,90,87,30.25,29.96,19,7,24,0.00
2013-2-10,30,27,26,29,26,24,98,95,91,29.96,29.35,22,9,24,0.00
2013-2-11,26,21,11,26,17,8,97,85,76,30.10,29.43,17,6,24,0.00
2013-2-12,30,20,12,21,16,9,92,83,69,30.10,29.87,12,6,16,0.00
2013-2-13,34,26,16,30,23,14,97,87,71,29.87,29.62,10,4,13,0.04
2013-2-14,30,22,7,30,15,-3,98,74,44,30.25,29.67,14,4,18,0.00
2013-2-15,16,7,0,4,0,-3,86,74,54,30.41,30.26,8,4,13,0.00
2013-2-16,16,6,-1,8,1,-4,88,83,64,30.37,30.19,6,2,8,0.00
2013-2-17,30,19,5,22,13,2,88,79,68,30.19,29.66,21,8,28,0.00
2013-2-18,30,19,3,28,14,-2,93,81,73,29.92,29.56,18,8,29,0.00
2013-2-19,3,0,-5,-2,-8,-12,80,70,59,30.50,29.92,17,6,24,0.00
2013-2-20,11,1,-10,0,-7,-14,84,72,60,30.60,30.51,8,2,10,0.00
2013-2-21,19,10,1,15,4,-4,85,74,63,30.56,30.19,18,8,22,0.00
2013-2-22,26,21,18,20,18,15,92,87,73,30.18,29.93,15,7,20,0.00
2013-2-23,27,20,7,21,16,5,94,87,75,30.02,29.91,9,4,12,0.00
2013-2-24,31,15,0,24,10,-3,94,83,62,30.19,30.02,5,1,7,0.00
2013-2-25,30,22,16,21,17,13,93,82,69,30.19,30.11,6,1,8,0.00
2013-2-26,32,21,8,25,18,6,94,85,72,30.13,29.98,18,6,23,0.00
2013-2-27,38,29,22,24,21,18,88,74,54,30.11,29.96,18,8,23,0.01
2013-2-28,28,25,18,22,19,12,83,76,70,30.29,30.11,14,7,17,0.00
2013-3-1,25,20,12,16,14,6,84,75,66,30.44,30.29,13,6,17,0.00
2013-3-2,27,16,4,12,8,1,90,74,51,30.43,30.24,6,2,7,0.00
2013-3-3,32,25,18,13,10,7,73,55,36,30.23,30.02,12,4,16,0.00
2013-3-4,26,23,21,20,18,12,93,80,57,30.08,29.98,12,4,20,0.00
2013-3-5,26,23,20,24,21,17,94,90,83,30.38,30.03,14,7,18,0.00
2013-3-6,24,20,11,17,16,9,94,82,73,30.48,30.39,13,3,13,0.00
2013-3-7,31,17,0,17,11,-4,92,77,55,30.46,30.34,11,3,14,0.00
2013-3-8,37,26,16,28,21,14,93,81,63,30.38,30.13,8,3,10,0.03
2013-3-9,36,33,31,35,32,28,98,96,81,30.13,29.73,9,4,14,0.60
2013-3-10,32,29,25,31,25,20,96,85,79,30.04,29.85,29,16,34,0.01
2013-3-11,29,24,19,21,19,14,86,80,66,29.95,29.83,17,7,22,0.00
2013-3-12,27,22,17,18,14,9,83,72,54,30.28,29.89,15,5,22,0.00
2013-3-13,28,18,8,17,12,5,90,79,61,30.46,30.29,10,3,12,0.00
2013-3-14,38,29,22,26,23,17,92,78,57,30.30,30.07,9,3,12,0.02
2013-3-15,31,28,21,29,26,19,94,91,85,30.06,29.89,14,7,21,0.00
2013-3-16,21,16,7,19,10,0,92,76,59,30.33,29.98,15,5,19,0.00
2013-3-17,25,18,3,19,7,-3,77,65,54,30.36,29.91,16,6,20,0.00
2013-3-18,29,19,8,28,15,3,96,83,72,29.91,29.65,26,13,33,0.01
2013-3-19,18,9,3,5,0,-3,80,68,49,30.31,29.91,16,9,25,0.00
2013-3-20,19,9,1,4,-1,-5,74,63,47,30.34,30.22,15,6,23,0.00
2013-3-21,22,12,-1,8,2,-6,83,67,51,30.24,30.14,7,2,9,0.00
2013-3-22,33,19,4,15,9,0,85,67,43,30.19,30.12,8,2,9,0.00
2013-3-23,36,23,12,21,14,9,86,70,43,30.23,30.15,7,2,9,0.00
2013-3-24,31,27,23,25,21,19,94,80,63,30.17,30.05,22,7,25,0.00
2013-3-25,34,28,22,24,17,14,87,65,47,30.30,30.12,18,6,26,0.00
2013-3-26,35,26,16,21,18,12,86,72,55,30.36,30.30,10,3,11,0.00
2013-3-27,37,28,18,19,16,13,89,63,43,30.41,30.36,7,2,10,0.00
2013-3-28,42,32,20,26,21,15,82,64,49,30.40,30.31,9,2,13,0.00
2013-3-29,47,38,31,37,31,25,84,75,61,30.32,30.07,10,4,14,0.00
2013-3-30,47,40,32,40,35,29,95,84,73,30.06,29.89,12,5,17,0.22
2013-3-31,35,30,19,30,22,12,96,73,47,30.17,29.84,14,7,25,0.00
2013-4-1,30,21,13,17,12,8,83,70,54,30.35,30.18,12,5,20,0.00
2013-4-2,34,24,15,16,14,12,88,67,42,30.42,30.33,7,3,14,0.00
2013-4-3,45,32,18,33,23,13,88,68,52,30.45,30.07,17,6,29,0.00
2013-4-4,44,38,29,33,28,22,86,67,47,30.23,30.03,19,5,23,0.00
2013-4-5,38,31,24,31,24,18,92,75,46,30.28,29.91,13,5,18,0.01
2013-4-6,50,39,34,40,33,30,90,80,66,29.91,29.57,11,5,19,0.05
2013-4-7,46,38,33,38,32,29,95,80,67,29.97,29.79,8,3,13,0.18
2013-4-8,42,38,36,39,37,34,98,95,87,30.09,29.72,20,8,21,0.07
2013-4-9,38,34,30,34,27,23,89,77,61,30.24,30.06,25,14,30,0.00
2013-4-10,36,34,31,29,23,19,90,66,57,30.23,29.95,29,14,35,0.00
2013-4-11,34,30,26,30,27,21,96,88,62,29.96,29.75,25,16,34,0.07
2013-4-12,34,29,25,29,26,24,96,89,72,29.90,29.75,13,5,18,0.07
2013-4-13,35,30,25,27,24,21,96,81,62,30.00,29.88,10,4,14,0.02
2013-4-14,33,30,27,32,26,22,98,87,73,29.98,29.52,24,7,33,0.00
2013-4-15,36,33,30,33,28,26,97,81,74,30.02,29.52,28,14,35,0.02
2013-4-16,41,34,30,28,26,24,83,72,57,30.37,30.02,20,4,24,0.00
2013-4-17,38,34,31,32,28,25,97,80,72,30.37,30.02,20,10,26,0.01
2013-4-18,31,30,29,30,29,28,98,97,95,30.02,29.61,27,13,32,0.00
2013-4-19,37,30,26,28,24,14,98,79,41,30.06,29.59,14,7,31,0.07
2013-4-20,37,28,18,18,15,10,88,60,35,30.35,30.06,10,3,13,0.00
2013-4-21,47,37,30,43,34,17,97,86,57,30.35,30.04,15,6,26,0.15
2013-4-22,38,33,29,33,29,24,97,84,62,30.27,30.16,24,10,30,0.00
2013-4-23,38,31,23,29,22,17,97,71,44,30.24,30.13,14,4,17,0.00
2013-4-24,46,34,25,33,27,22,94,79,45,30.13,29.95,28,8,34,0.05
2013-4-25,49,38,28,31,28,26,94,71,45,30.24,30.04,11,6,16,0.00
2013-4-26,49,45,43,40,35,30,77,69,59,30.07,29.96,11,6,22,0.00
2013-5-2,41,36,32,23,18,-100,70,54,46,30.51,0.00,19,-24,24,0.00
2013-5-3,39,34,28,33,26,22,89,75,58,30.49,30.22,25,13,30,0.01
2013-5-4,42,36,31,39,34,29,95,92,89,30.24,30.18,19,12,23,0.07
2013-5-5,65,47,36,48,41,34,95,81,53,30.23,30.11,11,5,13,0.01
2013-5-6,71,58,42,50,45,41,94,67,44,30.14,30.01,9,2,13,0.00
2013-5-7,75,64,52,51,47,43,86,56,31,30.05,29.93,16,3,16,0.00
2013-5-8,72,62,56,56,49,44,90,66,40,30.00,29.94,21,5,23,0.13
2013-5-9,56,51,42,53,46,30,93,84,63,30.15,29.96,25,12,29,0.01
2013-5-10,64,49,33,40,27,19,78,47,20,30.17,29.89,16,7,21,0.01
2013-5-11,53,45,39,39,25,18,76,48,30,30.21,29.92,25,8,34,0.00
2013-5-12,58,45,33,28,19,12,65,39,17,30.27,30.12,11,3,21,0.00
2013-5-13,75,56,40,47,33,20,63,43,30,30.13,29.63,23,5,27,0.01
2013-5-14,94,73,56,51,43,30,60,37,13,29.67,29.44,17,6,36,0.00
2013-5-15,80,65,51,50,44,38,74,48,23,29.89,29.68,18,6,23,0.00
2013-5-16,79,68,53,47,40,30,68,39,23,29.91,29.81,20,7,22,0.00
2013-5-17,65,58,55,55,49,30,97,77,27,29.96,29.87,14,5,20,0.24
2013-5-18,78,65,55,67,60,54,100,86,64,29.95,29.75,15,5,19,2.60
2013-5-19,77,67,61,69,63,61,99,87,65,29.76,29.53,13,4,19,0.64
2013-5-20,69,63,58,62,59,57,100,89,70,29.55,29.46,12,5,24,0.52
2013-5-21,59,50,44,58,49,43,100,98,97,29.75,29.50,17,11,21,0.16
2013-5-22,49,45,42,48,44,42,100,96,85,30.03,29.73,20,13,26,0.11
2013-5-23,61,51,42,43,36,29,91,60,30,30.34,30.05,19,9,25,0.00
2013-5-24,65,54,41,51,38,30,94,59,38,30.39,30.19,10,4,17,0.36
2013-5-25,60,54,51,50,48,46,96,81,68,30.24,30.20,16,5,22,0.01
2013-5-26,56,54,51,48,43,36,77,68,50,30.22,30.03,13,5,21,0.00
2013-5-27,61,56,51,54,51,47,96,83,73,30.05,29.84,16,6,17,0.00
2013-5-28,59,55,52,56,53,50,96,93,86,29.83,29.71,10,3,13,0.02
2013-5-29,74,64,52,68,60,51,99,87,66,29.82,29.61,10,4,20,0.00
2013-5-30,72,66,63,65,63,61,97,89,70,29.63,29.47,13,5,25,0.35
2013-5-31,70,64,58,61,56,51,98,76,52,29.51,29.46,15,7,25,0.33
2013-6-1,62,54,51,54,46,43,80,76,72,29.96,29.72,23,9,24,0.00
2013-6-2,64,55,45,47,41,39,84,62,39,30.10,29.97,16,5,20,0.00
2013-6-3,66,58,46,46,44,40,90,60,39,30.07,29.95,8,2,11,0.00
2013-6-4,60,56,53,56,51,45,96,83,60,30.06,29.96,13,5,18,0.32
2013-6-5,61,55,50,55,52,49,96,91,80,30.05,29.95,13,4,16,0.00
2013-6-6,55,51,48,51,49,47,99,93,81,30.06,29.99,13,6,16,0.00
2013-6-7,63,55,49,53,50,47,95,84,66,30.07,29.92,6,2,8,0.00
2013-6-8,68,61,52,55,53,50,97,76,54,29.92,29.87,11,3,17,0.00
2013-6-9,62,58,55,59,56,54,97,93,80,29.87,29.77,14,7,25,0.52
2013-6-10,72,62,57,62,59,57,100,89,68,29.87,29.80,8,2,10,0.00
2013-6-11,74,65,58,68,62,57,99,90,77,29.90,29.79,9,2,12,0.02
2013-6-12,73,64,56,63,56,51,96,76,63,29.94,29.78,15,5,19,0.51
2013-6-13,76,66,55,57,53,50,83,66,43,30.11,29.95,12,4,15,0.00
2013-6-14,76,68,57,62,57,51,82,69,59,30.06,29.83,14,4,23,0.00
2013-6-15,79,70,63,67,62,50,96,77,43,29.88,29.82,12,3,17,0.00
2013-6-16,84,70,60,60,51,43,80,55,24,29.91,29.81,24,6,41,0.01
2013-6-17,77,69,59,59,56,51,83,64,45,30.01,29.84,15,6,20,0.00
2013-6-18,75,62,50,58,52,44,85,71,51,30.09,30.00,12,4,17,0.01
2013-6-19,82,71,59,63,58,55,87,66,45,30.03,29.90,12,3,13,0.00
2013-6-20,86,77,69,68,63,58,81,65,47,29.95,29.80,11,4,20,0.00
2013-6-21,80,71,62,68,64,61,96,80,59,29.99,29.67,11,4,23,0.94
2013-6-22,77,69,63,68,65,62,98,88,72,29.96,29.79,16,4,34,0.29
2013-6-23,78,72,65,69,66,62,99,82,61,29.85,29.63,20,6,26,1.05
2013-6-24,80,72,62,71,66,61,96,83,63,29.87,29.76,8,2,12,0.00
2013-6-25,84,74,64,72,67,62,95,81,62,29.79,29.66,11,3,12,0.00
2013-6-26,84,76,71,72,68,63,99,78,55,29.78,29.62,17,4,26,0.00
2013-6-27,83,76,69,67,60,52,89,60,35,29.80,29.76,17,7,27,0.00
2013-6-28,76,70,66,65,59,55,84,69,55,29.79,29.75,23,6,30,0.01
2013-6-29,75,67,60,62,58,52,97,75,49,29.99,29.75,21,8,27,0.51
2013-6-30,79,68,54,57,53,49,91,62,37,30.11,29.98,17,5,20,0.00
2013-7-1,81,71,59,61,56,53,87,62,38,30.18,30.11,12,4,14,0.00
2013-7-2,80,70,59,59,53,41,84,57,33,30.15,30.03,14,4,14,0.00
2013-7-3,83,72,61,61,56,51,97,60,33,30.05,29.91,6,1,11,0.00
2013-7-4,85,74,61,63,58,55,87,61,37,29.93,29.80,11,3,16,0.00
2013-7-5,86,77,68,65,61,56,71,58,44,29.84,29.74,21,6,24,0.00
2013-7-6,82,75,70,72,65,60,78,71,62,29.82,29.75,6,2,11,0.00
2013-7-7,89,77,69,75,69,66,93,76,56,29.86,29.77,13,2,14,0.39
2013-7-8,85,70,62,70,66,62,100,89,55,29.99,29.86,9,4,12,0.09
2013-7-9,82,73,66,70,67,63,97,82,62,29.93,29.66,20,5,33,0.48
2013-7-10,78,69,58,63,57,54,90,67,45,30.04,29.92,10,3,19,0.00
2013-7-11,81,71,59,62,59,57,97,69,46,30.09,29.93,8,2,14,0.00
2013-7-12,85,75,67,65,61,57,72,62,49,29.95,29.82,15,6,22,0.00
2013-7-13,76,70,67,69,65,58,97,83,61,30.02,29.85,13,6,24,0.53
2013-7-14,81,73,66,69,65,59,88,77,63,30.15,30.01,8,2,16,0.00
2013-7-15,84,76,67,70,67,64,97,76,56,30.20,30.11,9,3,15,0.00
2013-7-16,87,80,71,72,70,66,94,72,49,30.17,30.11,19,5,21,0.00
2013-7-17,89,80,70,73,69,66,90,71,53,30.20,30.06,17,5,20,0.00
2013-7-18,89,82,72,73,70,68,90,70,50,30.05,29.70,19,7,31,0.00
2013-7-19,81,76,62,71,64,59,94,67,48,29.89,29.68,15,5,29,0.09
2013-7-20,74,67,61,64,60,57,95,78,57,29.94,29.85,11,4,14,0.11
2013-7-21,79,68,58,68,61,53,92,79,63,29.93,29.75,10,4,13,0.00
2013-7-22,81,71,63,71,63,56,94,77,52,29.85,29.65,14,4,20,0.00
2013-7-23,73,65,56,57,54,50,91,70,46,30.01,29.85,16,5,17,0.00
2013-7-24,77,67,59,59,56,53,88,69,45,30.06,29.95,9,2,12,0.00
2013-7-25,76,69,60,65,61,57,94,77,60,29.96,29.88,12,4,17,0.01
2013-7-26,67,61,51,64,53,46,92,77,60,30.10,29.89,21,6,25,0.00
2013-7-27,64,56,46,48,46,43,93,70,50,30.10,29.96,22,5,23,0.00
2013-7-28,70,59,46,55,49,43,90,71,53,30.07,29.98,17,4,18,0.00
2013-7-29,75,63,51,59,55,50,97,76,48,30.12,30.05,6,2,13,0.06
2013-7-30,69,63,60,64,61,58,99,92,80,30.08,30.03,7,2,7,0.17
2013-7-31,76,67,59,65,58,50,100,77,43,30.07,29.98,16,4,21,0.01
2013-8-1,78,66,54,61,55,51,88,68,47,30.03,29.85,8,4,10,0.00
2013-8-2,77,67,57,58,54,50,86,65,44,30.03,29.85,11,2,15,0.00
2013-8-3,76,65,52,56,51,48,93,64,39,30.20,30.04,13,2,14,0.00
2013-8-4,73,62,51,57,53,48,90,72,48,30.23,29.98,7,3,9,0.00
2013-8-5,78,67,59,66,61,55,99,83,60,30.01,29.78,14,4,23,0.00
2013-8-6,79,65,56,68,60,55,99,87,63,29.83,29.66,16,4,22,0.00
2013-8-7,74,64,57,60,55,50,98,75,46,30.01,29.78,14,4,17,0.00
2013-8-8,74,63,55,62,58,54,97,83,60,30.06,29.97,8,2,11,0.00
2013-8-9,73,64,56,60,55,51,98,74,49,30.12,29.99,6,1,11,0.00
2013-8-10,76,65,51,58,55,50,97,72,46,30.18,30.07,4,1,5,0.00
2013-8-11,79,69,61,65,60,56,94,75,51,30.07,29.98,4,0,8,0.12
2013-8-12,79,67,56,61,57,54,96,71,44,30.06,29.99,10,1,12,0.00
2013-8-13,74,63,51,57,51,45,98,71,38,30.20,30.07,10,2,13,0.00
2013-8-14,61,59,56,52,52,51,84,78,70,30.10,30.09,0,0,1,0.00
2013-8-15,78,65,54,62,56,51,94,75,49,30.12,30.06,4,1,8,0.00
2013-8-16,78,67,54,62,57,53,98,73,46,30.17,30.12,7,1,10,0.00
2013-8-17,79,68,56,60,57,54,94,72,50,30.18,30.07,10,2,13,0.00
2013-8-18,78,68,56,60,57,53,93,71,49,30.11,29.97,12,4,26,0.00
2013-8-19,83,72,63,71,65,59,87,78,64,30.00,29.85,10,4,14,0.00
2013-8-20,85,76,67,74,70,65,95,83,69,29.87,29.80,9,3,13,0.00
2013-8-21,87,76,69,75,69,58,98,80,55,29.98,29.79,11,4,13,0.00
2013-8-22,81,72,63,58,52,46,79,53,31,30.11,29.99,17,6,17,0.00
2013-8-23,83,71,58,67,59,50,87,67,51,30.13,29.99,10,3,16,0.00
2013-8-24,86,77,69,73,69,66,91,79,59,30.01,29.86,13,6,25,0.00
2013-8-25,90,81,73,77,73,70,89,77,63,29.95,29.87,18,7,22,0.00
2013-8-26,90,82,73,77,75,72,97,80,63,29.92,29.77,11,4,14,0.00
2013-8-27,88,80,73,77,74,71,96,84,65,29.89,29.74,12,4,15,0.00
2013-8-28,86,76,68,74,70,67,99,83,66,29.98,29.88,9,3,11,0.00
2013-8-29,87,80,74,76,73,70,97,81,62,29.96,29.79,9,4,14,0.00
2013-8-30,80,73,67,71,66,63,95,80,60,29.91,29.79,15,6,20,0.00
2013-8-31,85,71,61,70,64,60,98,81,58,29.87,29.69,11,4,22,0.11
2013-9-1,71,66,57,64,59,51,90,78,67,29.99,29.73,12,4,21,0.00
2013-9-2,68,57,50,54,51,48,96,81,59,30.11,29.99,10,2,14,0.00
2013-9-3,75,61,47,61,55,46,99,83,56,30.10,29.98,9,2,12,0.01
2013-9-4,83,69,58,66,61,57,99,78,50,30.14,30.00,12,4,16,0.00
2013-9-5,81,69,60,67,60,55,91,74,52,30.20,30.07,9,4,11,0.00
2013-9-6,88,76,68,70,68,66,98,77,54,30.06,29.82,12,4,19,0.00
2013-9-7,88,77,67,71,67,60,99,74,47,29.98,29.82,14,7,21,0.00
2013-9-8,70,65,61,64,58,52,87,80,71,30.02,29.86,14,7,16,0.01
2013-9-9,88,73,64,74,68,59,99,86,63,29.86,29.60,11,3,17,0.06
2013-9-10,80,70,64,67,63,59,98,81,51,29.96,29.74,17,5,22,0.06
2013-9-11,82,70,60,63,56,49,95,66,34,30.07,29.96,14,4,17,0.00
2013-9-12,71,62,53,55,49,44,92,65,42,30.24,30.06,20,5,23,0.00
2013-9-13,69,57,45,49,45,43,96,68,43,30.29,30.08,9,2,12,0.00
2013-9-14,66,56,48,58,50,44,98,83,58,30.08,29.89,12,3,13,0.41
2013-9-15,64,57,49,55,53,47,99,89,70,30.33,29.89,17,8,26,0.22
2013-9-16,64,52,42,47,44,41,96,75,47,30.42,30.25,10,3,11,0.00
2013-9-17,50,49,48,47,46,43,93,88,79,30.25,30.18,5,2,9,0.00
2013-9-26,79,73,64,61,60,55,79,63,51,29.88,29.77,21,7,28,0.00
2013-9-27,80,71,64,65,62,60,88,74,55,29.86,29.73,19,6,25,0.01
2013-9-28,72,59,46,62,54,44,97,82,64,29.92,29.57,21,8,32,0.11
2013-9-29,76,57,42,52,45,40,93,68,35,29.95,29.75,10,4,15,0.00
2013-9-30,78,65,55,54,50,45,74,60,42,29.75,29.55,15,5,20,0.00
2013-10-1,70,63,52,53,45,34,76,54,27,29.97,29.54,19,7,26,0.00
2013-10-2,72,57,45,52,44,36,95,67,29,30.03,29.83,23,6,26,0.16
2013-10-3,56,54,52,55,53,51,99,97,93,29.97,29.86,17,10,21,0.03
2013-10-4,56,54,51,54,52,50,98,95,88,30.00,29.85,24,14,28,0.28
2013-10-5,56,50,41,56,47,40,100,90,68,29.86,29.75,22,5,22,0.05
2013-10-6,50,46,41,48,45,40,99,96,87,29.88,29.70,13,4,19,0.07
2013-10-7,66,53,43,46,42,39,93,69,40,29.99,29.85,9,3,11,0.00
2013-10-8,75,61,48,49,45,42,82,60,36,29.95,29.76,16,5,28,0.00
2013-10-9,74,63,54,54,50,47,80,63,46,30.01,29.88,10,4,18,0.00
2013-10-10,76,62,51,57,50,45,83,65,45,30.01,29.83,12,5,21,0.00
2013-10-11,71,63,55,60,54,48,88,72,55,29.84,29.55,22,8,31,0.15
2013-10-12,54,48,43,48,43,38,91,81,72,30.19,29.67,28,10,34,0.03
2013-10-13,58,47,35,41,36,33,95,70,41,30.46,30.20,9,2,13,0.00
2013-10-14,51,46,42,45,40,36,95,79,62,30.42,29.95,18,6,25,0.52
2013-10-15,48,47,42,48,46,42,99,98,95,29.94,29.68,20,8,25,0.93
2013-10-16,53,45,40,42,39,33,99,80,48,29.98,29.89,12,4,20,0.00
2013-10-17,47,42,38,45,39,35,96,88,79,29.91,29.81,9,3,17,0.39
2013-10-18,49,42,36,38,34,30,95,75,50,30.02,29.86,19,4,25,0.05
2013-10-19,41,37,31,39,34,29,97,90,74,29.85,29.72,11,4,16,0.08
2013-10-20,40,34,30,37,32,27,96,93,78,29.95,29.66,11,3,18,0.06
2013-10-21,38,33,28,26,24,21,89,71,57,30.01,29.95,15,5,25,0.00
2013-10-22,39,32,26,30,27,24,94,82,67,30.09,30.01,8,2,11,0.00
2013-10-23,34,32,30,29,24,20,90,74,60,30.17,30.05,12,3,18,0.00
2013-10-24,41,35,29,31,27,20,90,73,60,30.36,30.18,11,4,18,0.00
2013-10-25,57,41,24,43,34,23,94,76,55,30.36,29.81,19,7,28,0.00
2013-10-26,48,40,33,38,30,27,79,67,56,30.13,29.84,18,5,22,0.00
2013-10-27,54,39,28,35,30,25,87,70,48,30.19,29.85,21,8,27,0.00
2013-10-28,39,33,27,29,23,20,85,69,46,30.49,30.20,20,11,22,0.00
2013-10-29,35,33,29,33,28,25,95,84,78,30.47,30.14,14,8,21,0.04
2013-10-30,45,40,35,45,40,33,100,99,95,30.14,29.71,9,4,13,0.03
2013-10-31,44,39,38,44,38,36,100,97,92,29.70,29.44,12,5,14,0.00
2013-11-1,48,41,35,38,37,34,95,85,64,29.89,29.46,10,3,13,0.00
2013-11-2,48,39,31,36,32,29,93,78,58,30.11,29.89,8,2,14,0.00
2013-11-3,53,43,35,36,33,31,88,69,47,30.12,29.86,21,10,36,0.00
2013-11-4,47,42,34,42,36,30,95,79,62,30.17,29.81,15,6,25,0.25
2013-11-5,38,32,28,32,29,25,98,87,62,30.28,30.10,10,3,13,0.00
2013-11-6,38,30,25,29,26,22,98,85,63,30.20,30.10,11,4,13,0.04
2013-11-7,36,28,23,30,26,22,97,92,76,30.29,30.21,13,3,14,0.01
2013-11-8,41,33,22,37,28,22,97,83,62,30.24,29.63,14,5,20,0.01
2013-11-9,41,38,34,38,32,27,94,80,66,30.25,29.67,21,10,29,0.00
2013-11-10,37,34,30,31,29,26,87,81,73,30.37,30.15,16,5,19,0.00
2013-11-11,34,21,12,30,12,6,84,71,59,30.81,30.18,22,8,28,0.00
2013-11-12,27,18,10,15,10,6,88,73,49,30.86,30.50,13,5,17,0.00
2013-11-13,49,33,20,34,25,14,87,73,54,30.48,29.90,20,8,31,0.00
2013-11-14,52,40,33,39,34,30,91,81,59,29.90,29.77,13,4,18,0.00
2013-11-15,54,40,29,39,34,28,96,81,57,29.86,29.62,13,4,17,0.00
2013-11-16,44,42,38,44,40,34,99,94,77,29.62,29.25,12,4,19,0.11
2013-11-17,41,37,29,41,34,24,99,90,80,29.87,29.31,22,8,31,0.00
2013-11-18,33,27,21,24,21,18,90,77,63,30.31,29.88,19,6,32,0.00
2013-11-19,45,34,21,32,26,18,90,74,55,30.30,29.90,19,8,27,0.00
2013-11-20,44,41,35,34,31,28,90,70,59,30.05,29.88,14,6,23,0.00
2013-11-21,36,28,24,34,24,15,95,85,70,30.51,30.05,20,6,23,0.00
2013-11-25,35,31,27,26,23,20,74,71,65,30.14,30.07,15,6,20,0.00
2013-11-26,27,17,10,19,7,3,79,64,53,30.47,30.14,17,6,25,0.00
2013-11-27,21,14,6,11,7,3,91,74,59,30.48,30.14,12,3,19,0.00
2013-11-28,22,19,11,15,12,8,90,73,62,30.59,30.15,17,2,17,0.00
2013-11-29,30,21,10,20,14,7,92,78,60,30.59,30.18,13,4,19,0.00
2013-11-30,39,28,21,27,23,19,94,79,64,30.24,30.09,6,2,11,0.00
2013-12-1,32,24,16,25,21,15,94,87,74,30.26,29.97,6,1,7,0.00
2013-12-2,35,31,27,32,29,24,98,92,84,29.97,29.61,13,3,14,0.08
2013-12-3,33,32,29,32,32,29,99,99,98,29.82,29.61,14,6,18,0.03
2013-12-4,30,24,9,29,22,5,98,95,85,29.82,29.54,22,10,31,0.00
2013-12-5,8,3,-4,5,-2,-8,85,80,74,30.43,29.76,20,11,29,0.00
2013-12-6,1,-5,-10,-6,-10,-15,85,80,71,30.77,30.44,12,4,16,0.00
2013-12-7,-2,-9,-16,-9,-14,-19,86,81,72,30.85,30.70,14,4,18,0.00
2013-12-8,9,2,-10,6,-1,-13,91,88,85,30.69,30.14,12,3,14,0.00
2013-12-9,5,-4,-8,3,-8,-12,91,83,72,30.21,29.94,19,8,22,0.00
2013-12-10,8,2,-3,5,-2,-8,91,82,74,30.41,29.87,16,6,22,0.00
2013-12-11,-2,-7,-13,-6,-12,-17,83,78,72,30.68,30.41,12,5,15,0.00
2013-12-12,15,7,-1,9,3,-6,89,83,73,30.41,30.24,8,2,11,0.00
2013-12-13,13,9,5,10,5,2,88,83,79,30.39,30.21,20,13,22,0.00
2013-12-14,10,4,-5,6,1,-10,89,85,78,30.38,30.20,13,6,17,0.00
2013-12-15,-1,-3,-5,-8,-10,-12,80,74,66,30.27,30.22,11,5,15,0.00
2013-12-16,29,8,-2,26,5,-8,94,85,73,30.23,29.98,17,5,21,0.00
2013-12-17,32,21,5,27,16,3,92,81,68,30.17,29.96,18,7,26,0.00
2013-12-18,31,21,6,25,17,4,92,84,69,30.12,29.71,10,4,17,0.00
2013-12-19,23,14,11,19,9,5,90,82,74,30.16,29.88,23,14,27,0.00
2013-12-20,13,10,5,10,8,3,91,87,83,30.13,29.94,18,5,20,0.00
2013-12-21,16,13,9,12,10,7,93,89,85,30.10,29.95,16,6,19,0.00
2013-12-22,12,9,-1,9,5,-4,90,86,79,30.35,30.06,8,4,15,0.00
2013-12-23,-1,-7,-17,-4,-12,-21,85,78,67,30.64,30.36,9,4,14,0.00
2013-12-24,8,-5,-20,5,-10,-24,89,79,58,30.62,30.24,12,4,15,0.00
2013-12-25,26,15,8,22,11,5,93,85,71,30.24,30.15,14,4,21,0.00
2013-12-26,21,16,9,19,13,7,95,91,87,30.24,30.14,7,2,7,0.00
2013-12-27,38,27,13,31,24,11,97,91,76,30.23,29.94,17,6,22,0.05
2013-12-28,38,27,12,31,25,9,98,92,72,30.11,29.70,25,6,33,0.01
2013-12-29,11,-6,-18,8,-13,-22,85,72,56,30.44,30.12,21,5,29,0.00
2013-12-30,-1,-9,-19,-4,-12,-23,88,84,80,30.41,30.30,7,2,11,0.00
2013-12-31,-6,-10,-14,-10,-15,-19,86,80,70,30.56,30.34,11,4,13,0.00
2014-1-1,-3,-7,-12,-10,-13,-17,76,73,69,30.64,30.55,12,7,15,0.00
2014-1-2,0,-9,-16,-11,-16,-20,83,72,49,30.65,30.50,9,4,10,0.00